createdAt,value
2023-07-23T00:00:35.986Z,4.10
2023-07-23T00:05:37.654Z,2.30
2023-07-23T00:10:39.245Z,3.78
2023-07-23T00:15:40.792Z,4.05
2023-07-23T00:20:42.823Z,2.63
2023-07-23T00:25:44.376Z,3.47
2023-07-23T00:30:45.958Z,3.13
2023-07-23T00:35:47.664Z,2.85
2023-07-23T00:40:49.344Z,2.83
2023-07-23T00:45:51.028Z,3.70
2023-07-23T00:50:52.934Z,4.18
2023-07-23T00:55:54.812Z,3.63
2023-07-23T01:00:56.368Z,4.35
2023-07-23T01:06:03.840Z,2.85
2023-07-23T01:11:05.460Z,4.30
2023-07-23T01:16:09.093Z,3.38
2023-07-23T01:21:11.364Z,3.17
2023-07-23T01:26:13.877Z,4.82
2023-07-23T01:31:15.402Z,3.33
2023-07-23T01:36:17.884Z,2.97
2023-07-23T01:41:19.483Z,3.45
2023-07-23T01:46:21.009Z,2.58
2023-07-23T01:51:22.525Z,5.55
2023-07-23T01:56:24.039Z,2.75
2023-07-23T02:01:26.145Z,6.05
2023-07-23T02:06:27.869Z,2.83
2023-07-23T02:11:29.590Z,4.63
2023-07-23T02:16:31.579Z,3.40
2023-07-23T02:21:33.060Z,2.97
2023-07-23T02:26:34.503Z,2.45
2023-07-23T02:31:36.054Z,4.50
2023-07-23T02:36:37.570Z,3.90
2023-07-23T02:41:39.020Z,3.65
2023-07-23T02:46:40.663Z,2.97
2023-07-23T02:51:42.340Z,2.65
2023-07-23T02:56:43.790Z,3.83
2023-07-23T03:01:45.270Z,4.05
2023-07-23T03:06:46.759Z,3.88
2023-07-23T03:11:48.606Z,5.35
2023-07-23T03:16:50.157Z,3.25
2023-07-23T03:21:51.611Z,3.40
2023-07-23T03:26:53.102Z,2.80
2023-07-23T03:31:54.574Z,4.80
2023-07-23T03:36:56.082Z,2.80
2023-07-23T03:41:57.682Z,3.53
2023-07-23T03:47:14.150Z,3.03
2023-07-23T03:52:16.022Z,3.67
2023-07-23T03:57:17.756Z,3.63
2023-07-23T04:02:19.254Z,4.95
2023-07-23T04:07:20.686Z,3.95
2023-07-23T04:12:24.119Z,5.68
2023-07-23T04:17:25.737Z,3.15
2023-07-23T04:22:27.344Z,2.70
2023-07-23T04:27:28.845Z,3.03
2023-07-23T04:32:30.375Z,3.45
2023-07-23T04:37:31.949Z,3.60
2023-07-23T04:42:33.501Z,3.47
2023-07-23T04:47:36.625Z,2.72
2023-07-23T04:52:38.411Z,3.70
2023-07-23T04:57:39.946Z,1.83
2023-07-23T05:02:41.444Z,3.55
2023-07-23T05:07:42.934Z,2.15
2023-07-23T05:12:44.412Z,2.38
2023-07-23T05:17:45.997Z,2.30
2023-07-23T05:22:47.515Z,3.03
2023-07-23T05:27:51.830Z,2.95
2023-07-23T05:32:53.467Z,4.28
2023-07-23T05:37:54.988Z,3.33
2023-07-23T05:42:56.902Z,3.95
2023-07-23T05:47:58.440Z,2.95
2023-07-23T05:53:00.848Z,3.95
2023-07-23T05:58:02.330Z,2.30
2023-07-23T06:03:04.030Z,2.58
2023-07-23T06:08:05.630Z,3.67
2023-07-23T06:13:07.180Z,3.75
2023-07-23T06:18:08.664Z,2.40
2023-07-23T06:23:10.199Z,2.95
2023-07-23T06:28:11.692Z,2.83
2023-07-23T06:33:13.125Z,3.58
2023-07-23T06:38:15.390Z,4.78
2023-07-23T06:43:20.477Z,2.65
2023-07-23T06:48:22.145Z,2.78
2023-07-23T06:53:23.638Z,4.25
2023-07-23T06:58:25.197Z,1.83
2023-07-23T07:03:27.500Z,3.63
2023-07-23T07:08:29.875Z,4.03
2023-07-23T07:13:32.359Z,4.10
2023-07-23T07:18:33.883Z,4.72
2023-07-23T07:23:35.726Z,2.83
2023-07-23T07:28:37.187Z,2.25
2023-07-23T07:33:40.124Z,4.57
2023-07-23T07:38:42.497Z,3.15
2023-07-23T07:43:44.056Z,1.98
2023-07-23T07:48:45.554Z,2.40
2023-07-23T07:53:47.333Z,4.40
2023-07-23T07:58:49.149Z,1.85
2023-07-23T08:03:51.060Z,7.60
2023-07-23T08:08:53.599Z,2.22
2023-07-23T08:13:55.378Z,1.85
2023-07-23T08:18:57.315Z,1.98
2023-07-23T08:23:59.103Z,2.58
2023-07-23T08:29:04.163Z,5.43
2023-07-23T08:34:05.848Z,2.88
2023-07-23T08:39:07.713Z,3.60
2023-07-23T08:44:36.760Z,2.08
2023-07-23T08:49:42.585Z,2.90
2023-07-23T08:54:44.068Z,1.92
2023-07-23T08:59:46.708Z,2.70
2023-07-23T09:04:48.213Z,1.58
2023-07-23T09:09:50.355Z,2.70
2023-07-23T09:14:52.334Z,2.00
2023-07-23T09:19:55.225Z,4.03
2023-07-23T09:25:01.523Z,2.67
2023-07-23T09:30:04.653Z,3.50
2023-07-23T09:35:07.243Z,2.00
2023-07-23T09:40:09.628Z,1.60
2023-07-23T09:45:11.181Z,3.30
2023-07-23T09:50:15.456Z,4.40
2023-07-23T09:55:19.343Z,1.67
2023-07-23T10:00:21.427Z,4.45
2023-07-23T10:05:24.445Z,5.25
2023-07-23T10:10:26.161Z,2.75
2023-07-23T10:15:29.919Z,2.67
2023-07-23T10:20:33.151Z,2.95
2023-07-23T10:25:40.951Z,3.35
2023-07-23T10:30:43.328Z,2.40
2023-07-23T10:36:00.325Z,2.13
2023-07-23T10:41:03.338Z,2.13
2023-07-23T10:46:19.743Z,2.78
2023-07-23T10:51:23.145Z,2.25
2023-07-23T10:56:31.771Z,2.95
2023-07-23T11:01:40.681Z,2.67
2023-07-23T11:07:05.393Z,2.00
2023-07-23T11:12:07.554Z,2.72
2023-07-23T11:17:09.415Z,4.68
2023-07-23T11:22:10.984Z,3.08
2023-07-23T11:27:13.689Z,2.25
2023-07-23T11:32:15.334Z,2.42
2023-07-23T11:37:16.870Z,1.98
2023-07-23T11:42:18.761Z,2.60
2023-07-23T11:47:20.405Z,2.53
2023-07-23T11:52:25.657Z,3.00
2023-07-23T11:57:27.514Z,3.42
2023-07-23T12:02:29.112Z,1.67
2023-07-23T12:07:30.824Z,2.22
2023-07-23T12:12:34.949Z,2.08
2023-07-23T12:17:38.733Z,1.88
2023-07-23T12:22:54.497Z,2.25
2023-07-23T12:27:55.990Z,2.75
2023-07-23T12:32:57.608Z,1.50
2023-07-23T12:37:59.262Z,1.92
2023-07-23T12:43:00.967Z,2.22
2023-07-23T12:48:02.512Z,3.03
2023-07-23T12:53:04.041Z,3.55
2023-07-23T12:58:05.576Z,1.90
2023-07-23T13:03:10.301Z,1.95
2023-07-23T13:08:12.140Z,3.80
2023-07-23T13:13:13.598Z,3.65
2023-07-23T13:18:15.206Z,2.30
2023-07-23T13:23:16.655Z,2.30
2023-07-23T13:28:18.165Z,4.07
2023-07-23T13:33:19.648Z,2.55
2023-07-23T13:38:21.866Z,3.45
2023-07-23T13:43:23.355Z,5.05
2023-07-23T13:48:24.838Z,3.83
2023-07-23T13:53:26.344Z,2.90
2023-07-23T13:58:27.971Z,2.08
2023-07-23T14:03:29.504Z,2.85
2023-07-23T14:08:31.058Z,3.08
2023-07-23T14:13:32.650Z,4.68
2023-07-23T14:18:34.326Z,3.72
2023-07-23T14:23:36.170Z,3.40
2023-07-23T14:28:37.872Z,2.88
2023-07-23T14:33:40.428Z,2.80
2023-07-23T14:38:42.143Z,2.63
2023-07-23T14:43:43.640Z,3.95
2023-07-23T14:48:45.116Z,2.65
2023-07-23T14:53:47.563Z,4.95
2023-07-23T14:58:48.994Z,2.28
2023-07-23T15:03:50.655Z,3.50
2023-07-23T15:08:52.374Z,2.08
2023-07-23T15:13:54.297Z,3.20
2023-07-23T15:18:56.006Z,2.13
2023-07-23T15:23:57.717Z,2.60
2023-07-23T15:29:00.668Z,2.85
2023-07-23T15:34:02.960Z,2.92
2023-07-23T15:39:04.445Z,2.90
2023-07-23T15:44:06.378Z,3.67
2023-07-23T15:49:07.909Z,2.45
2023-07-23T15:54:09.670Z,3.35
2023-07-23T15:59:11.437Z,3.17
2023-07-23T16:04:13.064Z,2.80
2023-07-23T16:09:14.586Z,2.78
2023-07-23T16:14:16.300Z,3.28
2023-07-23T16:19:17.820Z,2.92
2023-07-23T16:24:19.649Z,2.65
2023-07-23T16:29:21.344Z,3.03
2023-07-23T16:34:23.470Z,6.13
2023-07-23T16:39:26.668Z,3.15
2023-07-23T16:44:29.885Z,4.32
2023-07-23T16:49:31.483Z,3.10
2023-07-23T16:54:33.132Z,2.55
2023-07-23T16:59:34.647Z,3.53
2023-07-23T17:04:36.153Z,3.63
2023-07-23T17:09:39.674Z,3.60
2023-07-23T17:14:41.165Z,5.25
2023-07-23T17:19:42.633Z,3.25
2023-07-23T17:24:46.274Z,4.63
2023-07-23T17:29:50.729Z,4.97
2023-07-23T17:34:52.806Z,2.58
2023-07-23T17:39:54.302Z,3.50
2023-07-23T17:44:55.858Z,4.85
2023-07-23T17:49:59.390Z,3.30
2023-07-23T17:55:00.852Z,4.47
2023-07-23T18:00:02.347Z,4.45
2023-07-23T18:05:04.382Z,3.17
2023-07-23T18:10:07.808Z,3.17
2023-07-23T18:15:20.223Z,5.18
2023-07-23T18:20:29.946Z,4.68
2023-07-23T18:25:40.445Z,4.95
2023-07-23T18:31:04.038Z,4.28
2023-07-23T18:36:21.303Z,6.10
2023-07-23T18:41:38.452Z,5.97
2023-07-23T18:46:57.673Z,4.63
2023-07-23T18:51:59.199Z,3.85
2023-07-23T18:57:00.651Z,6.18
2023-07-23T19:02:02.194Z,5.40
2023-07-23T19:07:05.896Z,4.45
2023-07-23T19:12:07.976Z,4.72
2023-07-23T19:17:09.551Z,4.72
2023-07-23T19:22:11.021Z,3.80
2023-07-23T19:27:12.542Z,6.00
2023-07-23T19:32:14.670Z,7.13
2023-07-23T19:37:17.164Z,4.32
2023-07-23T19:42:18.772Z,6.68
2023-07-23T19:47:20.363Z,11.00
2023-07-23T19:52:21.897Z,6.18
2023-07-23T19:57:23.572Z,4.28
2023-07-23T20:02:25.157Z,7.47
2023-07-23T20:07:26.793Z,7.65
2023-07-23T20:12:28.344Z,9.02
2023-07-23T20:17:29.873Z,10.57
2023-07-23T20:22:31.402Z,5.70
2023-07-23T20:27:32.872Z,6.80
2023-07-23T20:32:34.962Z,6.07
2023-07-23T20:37:36.632Z,7.20
2023-07-23T20:42:38.480Z,5.68
2023-07-23T20:47:39.944Z,11.18
2023-07-23T20:52:43.120Z,8.90
2023-07-23T20:57:44.623Z,18.35
2023-07-23T21:02:46.173Z,9.10
2023-07-23T21:07:47.664Z,9.55
2023-07-23T21:12:49.127Z,9.70
2023-07-23T21:17:50.670Z,12.55
2023-07-23T21:22:52.143Z,9.63
2023-07-23T21:27:53.620Z,11.07
2023-07-23T21:32:55.150Z,9.25
2023-07-23T21:37:56.668Z,8.73
2023-07-23T21:42:58.120Z,10.00
2023-07-23T21:48:01.162Z,10.18
2023-07-23T21:53:02.735Z,12.57
2023-07-23T21:58:05.456Z,15.40
2023-07-23T22:03:06.983Z,10.75
2023-07-23T22:08:08.641Z,11.32
2023-07-23T22:13:10.108Z,13.38
2023-07-23T22:18:11.576Z,10.80
2023-07-23T22:23:14.202Z,9.70
2023-07-23T22:28:15.773Z,9.80
2023-07-23T22:33:17.308Z,10.85
2023-07-23T22:38:19.016Z,8.68
2023-07-23T22:43:21.003Z,9.52
2023-07-23T22:48:23.241Z,8.52
2023-07-23T22:53:25.392Z,11.55
2023-07-23T22:58:27.729Z,8.43
2023-07-23T23:03:29.309Z,13.18
2023-07-23T23:08:31.066Z,10.45
2023-07-23T23:13:32.529Z,9.02
2023-07-23T23:18:34.259Z,9.73
2023-07-23T23:23:35.821Z,9.90
2023-07-23T23:28:37.378Z,13.00
2023-07-23T23:33:38.907Z,10.00
2023-07-23T23:38:40.579Z,10.18
2023-07-23T23:43:42.056Z,10.90
2023-07-23T23:48:43.575Z,10.50
2023-07-23T23:53:45.081Z,10.85
2023-07-23T23:58:46.633Z,11.85
